Time;durP1;ratioP1;P1;durP2;ratioP2;P2;SDS_P1;SDS_P2;PMS_P1;PMS_P2;Temp;Humidity;BMP_temperature;BMP_pressure;BME280_temperature;BME280_humidity;BME280_pressure;Samples;Min_cycle;Max_cycle;Signal;HPM_P1;HPM_P2
2021/06/06 00:02:20;;;;;;;8.88;6.43;;;21.60;60.20;;;;;;5022718;28;20402;-75
2021/06/06 00:05:05;;;;;;;7.17;5.90;;;21.60;60.30;;;;;;5026496;28;20521;-74
2021/06/06 00:07:50;;;;;;;7.32;5.88;;;21.60;60.60;;;;;;5007040;28;20049;-75
2021/06/06 00:10:34;;;;;;;9.03;5.70;;;21.50;60.70;;;;;;5012954;28;20041;-75
2021/06/06 00:13:18;;;;;;;8.17;5.53;;;21.50;60.90;;;;;;5011980;28;20303;-75
2021/06/06 00:16:02;;;;;;;9.27;5.93;;;21.40;61.30;;;;;;4993745;28;20316;-78
2021/06/06 00:18:47;;;;;;;7.82;6.20;;;21.40;61.40;;;;;;5008235;28;20053;-77
2021/06/06 00:21:32;;;;;;;7.53;6.32;;;21.40;61.50;;;;;;4997544;28;20140;-78
2021/06/06 00:24:22;;;;;;;11.02;6.57;;;21.40;61.90;;;;;;5022469;28;20059;-77
2021/06/06 00:27:08;;;;;;;9.85;6.03;;;21.30;62.10;;;;;;5023649;28;20104;-78
2021/06/06 00:29:52;;;;;;;9.82;6.40;;;21.30;62.40;;;;;;5012061;28;20045;-78
2021/06/06 00:32:37;;;;;;;9.10;6.72;;;21.20;62.50;;;;;;5011981;28;20045;-78
2021/06/06 00:35:23;;;;;;;12.30;6.75;;;21.20;62.60;;;;;;4993259;28;20088;-78
2021/06/06 00:38:07;;;;;;;8.00;6.35;;;21.20;62.70;;;;;;5010794;28;20101;-79
2021/06/06 00:40:52;;;;;;;6.85;6.13;;;21.20;62.70;;;;;;5032454;28;20044;-78
2021/06/06 00:43:37;;;;;;;11.57;6.35;;;21.10;62.70;;;;;;5017503;28;20072;-78
2021/06/06 00:46:23;;;;;;;8.35;6.13;;;21.10;62.80;;;;;;5029565;28;20075;-77
2021/06/06 00:49:07;;;;;;;9.80;6.70;;;21.10;63.00;;;;;;5015060;28;20122;-78
2021/06/06 00:51:55;;;;;;;7.70;6.17;;;21.10;63.10;;;;;;5010785;28;20088;-78
2021/06/06 00:54:44;;;;;;;8.77;5.80;;;21.00;63.30;;;;;;4993246;28;20057;-78
2021/06/06 00:57:31;;;;;;;8.98;6.70;;;21.00;63.70;;;;;;4993805;28;20073;-78
2021/06/06 01:00:31;;;;;;;7.47;6.20;;;21.00;63.80;;;;;;5006223;28;20576;-78
2021/06/06 01:03:17;;;;;;;6.75;6.05;;;20.90;64.00;;;;;;5010408;28;20057;-78
2021/06/06 01:06:11;;;;;;;8.80;6.68;;;20.90;64.10;;;;;;5012438;28;20068;-78
2021/06/06 01:08:56;;;;;;;8.07;6.90;;;20.80;64.20;;;;;;4992969;28;20033;-78
2021/06/06 01:12:13;;;;;;;8.07;6.60;;;20.80;64.40;;;;;;4995901;28;20032;-77
2021/06/06 01:15:17;;;;;;;9.32;6.53;;;20.80;64.40;;;;;;5011451;28;20056;-77
2021/06/06 01:18:09;;;;;;;8.15;6.32;;;20.80;64.60;;;;;;5009525;28;20068;-77
2021/06/06 01:21:08;;;;;;;9.35;6.97;;;20.70;64.60;;;;;;5023576;28;20041;-78
2021/06/06 01:24:22;;;;;;;10.77;6.70;;;20.70;64.80;;;;;;4996885;28;20061;-77
2021/06/06 01:27:29;;;;;;;10.43;6.68;;;20.60;65.00;;;;;;4999545;28;20794;-77
2021/06/06 01:30:23;;;;;;;9.88;6.75;;;20.60;65.20;;;;;;5017068;28;20080;-77
2021/06/06 01:33:21;;;;;;;13.02;6.90;;;20.50;65.20;;;;;;5015068;28;20041;-77
2021/06/06 01:36:25;;;;;;;9.82;6.70;;;20.60;65.50;;;;;;5011388;28;20037;-78
2021/06/06 01:39:30;;;;;;;9.52;6.65;;;20.50;65.70;;;;;;4992307;28;20057;-78
2021/06/06 01:42:29;;;;;;;7.70;6.93;;;20.50;65.90;;;;;;5002773;28;20096;-77
2021/06/06 01:45:29;;;;;;;10.68;6.65;;;20.50;65.90;;;;;;5027749;28;20025;-78
2021/06/06 01:48:14;;;;;;;11.63;7.13;;;20.40;66.10;;;;;;5014891;28;20083;-77
2021/06/06 01:51:08;;;;;;;7.90;7.10;;;20.40;66.30;;;;;;5042640;28;20093;-75
2021/06/06 01:53:52;;;;;;;10.30;7.22;;;20.40;66.50;;;;;;5006325;28;20137;-75
2021/06/06 01:56:22;;;;;;;8.18;6.63;;;20.30;66.70;;;;;;4992743;28;20459;-76
2021/06/06 01:59:15;;;;;;;7.55;6.75;;;20.30;66.80;;;;;;5006543;28;20397;-76
2021/06/06 02:01:59;;;;;;;8.60;7.10;;;20.30;67.10;;;;;;5011438;28;20045;-77
2021/06/06 02:04:43;;;;;;;9.07;7.47;;;20.30;67.00;;;;;;5001140;28;20566;-68
2021/06/06 02:07:31;;;;;;;9.03;7.13;;;20.30;67.10;;;;;;4991808;28;20490;-68
2021/06/06 02:10:36;;;;;;;8.63;7.10;;;20.20;67.40;;;;;;5028812;28;20048;-69
2021/06/06 02:13:25;;;;;;;9.63;7.47;;;20.20;67.80;;;;;;5010576;28;20100;-68
2021/06/06 02:16:14;;;;;;;8.27;7.47;;;20.20;67.90;;;;;;5013537;28;20041;-68
2021/06/06 02:18:58;;;;;;;8.35;7.10;;;20.20;68.20;;;;;;5016866;28;20509;-68
2021/06/06 02:21:42;;;;;;;8.73;7.03;;;20.10;68.30;;;;;;5010976;28;20127;-68
2021/06/06 02:24:27;;;;;;;9.80;7.07;;;20.00;68.60;;;;;;5013206;28;20060;-68
2021/06/06 02:27:29;;;;;;;9.88;7.93;;;20.00;69.00;;;;;;5020671;28;20083;-68
2021/06/06 02:30:17;;;;;;;9.70;7.47;;;20.00;69.40;;;;;;4992055;28;20077;-68
2021/06/06 02:33:38;;;;;;;11.65;7.47;;;20.00;69.50;;;;;;5016586;28;20033;-69
2021/06/06 02:36:23;;;;;;;11.70;7.65;;;19.90;69.80;;;;;;5011226;28;20033;-69
2021/06/06 02:39:15;;;;;;;9.70;7.40;;;19.90;70.00;;;;;;4994459;28;20037;-69
2021/06/06 02:42:09;;;;;;;7.93;6.97;;;19.90;70.30;;;;;;5009254;28;20056;-69
2021/06/06 02:44:57;;;;;;;9.10;7.35;;;19.80;70.70;;;;;;5015996;28;20036;-69
2021/06/06 02:47:43;;;;;;;12.00;7.57;;;19.80;70.80;;;;;;5027243;28;20128;-69
2021/06/06 02:50:33;;;;;;;10.27;7.88;;;19.80;71.20;;;;;;5012010;28;20113;-69
2021/06/06 02:53:26;;;;;;;11.38;7.75;;;19.70;71.30;;;;;;5013568;28;20575;-69
2021/06/06 02:56:20;;;;;;;10.77;7.85;;;19.70;71.40;;;;;;5030105;28;20036;-69
2021/06/06 02:59:12;;;;;;;9.32;7.60;;;19.70;71.60;;;;;;5019003;28;20504;-69
2021/06/06 03:02:00;;;;;;;8.75;7.75;;;19.70;72.00;;;;;;5008451;28;20044;-69
2021/06/06 03:04:49;;;;;;;12.93;7.80;;;19.70;72.10;;;;;;5013597;28;20117;-69
2021/06/06 03:07:40;;;;;;;10.38;7.65;;;19.60;72.30;;;;;;5031487;28;20519;-69
2021/06/06 03:10:26;;;;;;;10.90;7.53;;;19.60;72.50;;;;;;5015484;28;20386;-69
2021/06/06 03:13:20;;;;;;;9.73;8.00;;;19.60;72.60;;;;;;5012647;28;20390;-69
2021/06/06 03:16:04;;;;;;;10.70;8.23;;;19.60;72.90;;;;;;5025290;28;20067;-70
2021/06/06 03:18:53;;;;;;;13.37;8.07;;;19.50;73.10;;;;;;5019117;28;20061;-68
2021/06/06 03:21:40;;;;;;;11.05;7.57;;;19.50;73.30;;;;;;5032727;28;20099;-69
2021/06/06 03:24:39;;;;;;;11.07;8.43;;;19.50;73.70;;;;;;5004554;28;20029;-69
2021/06/06 03:27:26;;;;;;;10.13;8.23;;;19.50;74.00;;;;;;5013464;28;20045;-69
2021/06/06 03:30:25;;;;;;;9.50;7.80;;;19.40;74.20;;;;;;5023672;28;20079;-69
2021/06/06 03:33:17;;;;;;;10.23;7.75;;;19.40;74.50;;;;;;5025952;28;20093;-69
2021/06/06 03:36:01;;;;;;;11.43;7.55;;;19.40;74.50;;;;;;5029577;28;20393;-69
2021/06/06 03:38:45;;;;;;;9.45;7.40;;;19.40;74.90;;;;;;5015074;28;20076;-69
2021/06/06 03:41:29;;;;;;;12.10;8.30;;;19.40;75.20;;;;;;5032682;28;20040;-69
2021/06/06 03:44:13;;;;;;;11.43;8.52;;;19.40;75.40;;;;;;4998182;28;20070;-69
2021/06/06 03:46:57;;;;;;;9.85;8.85;;;19.40;75.60;;;;;;4994102;28;20041;-69
2021/06/06 03:49:42;;;;;;;8.60;7.65;;;19.40;75.70;;;;;;5007987;28;20036;-69
2021/06/06 03:52:26;;;;;;;8.75;7.80;;;19.40;76.00;;;;;;4997219;28;20049;-69
2021/06/06 03:55:13;;;;;;;9.70;7.80;;;19.40;76.20;;;;;;5003295;28;20130;-69
2021/06/06 03:57:58;;;;;;;10.15;8.02;;;19.40;76.40;;;;;;5010963;28;20092;-69
2021/06/06 04:00:46;;;;;;;11.45;9.02;;;19.40;76.50;;;;;;5026484;28;20488;-68
2021/06/06 04:03:31;;;;;;;13.80;9.32;;;19.50;76.60;;;;;;5014775;28;20053;-68
2021/06/06 04:06:14;;;;;;;9.40;8.27;;;19.50;76.60;;;;;;5014157;28;20111;-68
2021/06/06 04:08:59;;;;;;;9.23;7.93;;;19.50;77.60;;;;;;5012510;28;20111;-68
2021/06/06 04:11:43;;;;;;;9.25;8.32;;;19.50;77.10;;;;;;4997028;28;20545;-68
2021/06/06 04:14:27;;;;;;;10.05;9.05;;;19.50;77.10;;;;;;5015683;28;20036;-67
2021/06/06 04:17:11;;;;;;;12.57;8.27;;;19.50;77.30;;;;;;5031447;28;20509;-68
2021/06/06 04:19:56;;;;;;;9.60;8.10;;;19.50;77.40;;;;;;5012694;28;20111;-68
2021/06/06 04:22:40;;;;;;;13.95;10.30;;;19.60;77.60;;;;;;5012735;28;20099;-68
2021/06/06 04:25:24;;;;;;;11.57;8.23;;;19.60;77.60;;;;;;5024583;28;20041;-68
2021/06/06 04:28:09;;;;;;;14.33;10.67;;;19.60;77.70;;;;;;5019472;28;20057;-69
2021/06/06 04:30:53;;;;;;;17.95;12.48;;;19.60;77.60;;;;;;4993278;28;20388;-69
2021/06/06 04:33:38;;;;;;;15.77;12.07;;;19.70;77.40;;;;;;5003721;28;20092;-69
2021/06/06 04:36:22;;;;;;;16.70;11.98;;;19.70;77.60;;;;;;5045553;28;20044;-69
2021/06/06 04:39:07;;;;;;;10.87;9.13;;;19.70;77.30;;;;;;5016115;28;20053;-69
2021/06/06 04:41:51;;;;;;;12.18;10.18;;;19.80;77.30;;;;;;5011547;28;20303;-69
2021/06/06 04:44:37;;;;;;;11.43;9.15;;;19.80;77.80;;;;;;5027249;28;20559;-69
2021/06/06 04:47:21;;;;;;;9.88;8.75;;;19.80;77.90;;;;;;5029742;28;20092;-69
2021/06/06 04:50:08;;;;;;;11.77;9.25;;;19.90;77.70;;;;;;4993027;28;20037;-69
2021/06/06 04:52:52;;;;;;;13.05;9.73;;;19.90;77.80;;;;;;5006180;28;20070;-69
2021/06/06 04:55:36;;;;;;;10.70;9.57;;;20.00;78.00;;;;;;5024473;28;20032;-69
2021/06/06 04:58:21;;;;;;;12.02;9.07;;;20.00;77.90;;;;;;5016672;28;20136;-75
2021/06/06 05:01:05;;;;;;;11.38;10.07;;;20.00;77.70;;;;;;5012328;28;20588;-74
2021/06/06 05:03:50;;;;;;;14.35;9.77;;;20.10;77.70;;;;;;5005242;28;20100;-75
2021/06/06 05:06:34;;;;;;;10.88;9.75;;;20.10;77.60;;;;;;4995841;28;20547;-74
2021/06/06 05:09:18;;;;;;;12.60;11.02;;;20.10;77.40;;;;;;5014981;28;20040;-74
2021/06/06 05:12:02;;;;;;;11.43;9.85;;;20.10;77.40;;;;;;5014611;28;20052;-74
2021/06/06 05:14:45;;;;;;;14.23;10.00;;;20.10;77.60;;;;;;5010775;28;20033;-75
2021/06/06 05:17:29;;;;;;;12.87;10.00;;;20.20;77.80;;;;;;5017156;28;20166;-75
2021/06/06 05:20:16;;;;;;;16.40;10.07;;;20.20;77.70;;;;;;5014099;28;20040;-75
2021/06/06 05:23:01;;;;;;;11.38;10.15;;;20.30;77.60;;;;;;5020780;28;20398;-75
2021/06/06 05:25:46;;;;;;;12.60;10.07;;;20.30;77.80;;;;;;4992635;28;20399;-74
2021/06/06 05:28:32;;;;;;;12.80;10.13;;;20.30;77.40;;;;;;5013800;28;20048;-75
2021/06/06 05:31:18;;;;;;;12.23;9.63;;;20.40;77.50;;;;;;5011999;28;20125;-75
2021/06/06 05:34:02;;;;;;;12.40;10.32;;;20.40;77.60;;;;;;5004363;28;20040;-74
2021/06/06 05:36:46;;;;;;;10.53;8.87;;;20.50;77.80;;;;;;5014617;28;20505;-75
2021/06/06 05:39:30;;;;;;;12.25;10.15;;;20.50;77.90;;;;;;5011716;28;20040;-74
2021/06/06 05:42:14;;;;;;;11.63;10.43;;;20.60;77.90;;;;;;5012282;28;20095;-74
2021/06/06 05:44:58;;;;;;;11.63;10.43;;;20.70;77.90;;;;;;5011733;28;20072;-75
2021/06/06 05:47:42;;;;;;;11.85;10.65;;;20.70;77.70;;;;;;5017298;28;20087;-75
2021/06/06 05:50:29;;;;;;;13.57;11.00;;;20.80;77.60;;;;;;4992627;28;20073;-75
2021/06/06 05:53:13;;;;;;;12.80;9.80;;;20.90;77.50;;;;;;5014273;28;20040;-76
2021/06/06 05:55:57;;;;;;;12.00;10.80;;;20.90;77.50;;;;;;5008205;28;20402;-76
2021/06/06 05:58:42;;;;;;;13.60;10.90;;;21.00;77.60;;;;;;5017374;28;20449;-75
2021/06/06 06:01:26;;;;;;;12.05;10.45;;;21.10;77.40;;;;;;5011553;28;20299;-75
2021/06/06 06:04:10;;;;;;;11.63;10.30;;;21.20;77.50;;;;;;5010039;28;20089;-75
2021/06/06 06:06:54;;;;;;;13.60;10.95;;;21.30;77.30;;;;;;5015331;28;20087;-75
2021/06/06 06:09:38;;;;;;;11.60;10.50;;;21.30;77.10;;;;;;5014229;28;20609;-75
2021/06/06 06:12:22;;;;;;;11.60;10.40;;;21.40;77.20;;;;;;5031229;28;20291;-75
2021/06/06 06:15:08;;;;;;;12.02;10.52;;;21.50;77.40;;;;;;5009345;28;20045;-75
2021/06/06 06:17:52;;;;;;;13.80;10.05;;;21.60;77.90;;;;;;5025979;28;20041;-74
2021/06/06 06:20:36;;;;;;;11.77;10.67;;;21.80;77.60;;;;;;5024968;28;20068;-74
2021/06/06 06:23:20;;;;;;;12.90;10.75;;;21.80;77.50;;;;;;5022352;28;20307;-73
2021/06/06 06:26:05;;;;;;;11.55;9.77;;;21.90;77.40;;;;;;5031642;28;20047;-73
2021/06/06 06:28:49;;;;;;;13.38;10.63;;;22.00;77.20;;;;;;5021136;28;20041;-73
2021/06/06 06:31:34;;;;;;;13.25;10.48;;;22.10;76.80;;;;;;4995916;28;20089;-73
2021/06/06 06:34:18;;;;;;;11.90;10.70;;;22.20;76.50;;;;;;5010415;28;20056;-75
2021/06/06 06:37:03;;;;;;;11.02;9.93;;;22.30;76.20;;;;;;5015286;28;20045;-76
2021/06/06 06:39:47;;;;;;;11.57;9.95;;;22.40;76.20;;;;;;5018340;28;20044;-75
2021/06/06 06:42:32;;;;;;;12.60;10.40;;;22.50;75.80;;;;;;5039589;28;20040;-75
2021/06/06 06:45:20;;;;;;;14.27;11.45;;;22.60;75.70;;;;;;5015688;28;20040;-75
2021/06/06 06:48:08;;;;;;;10.88;9.88;;;22.70;75.60;;;;;;5011547;28;20437;-75
2021/06/06 06:50:55;;;;;;;13.25;10.10;;;22.80;76.00;;;;;;5028887;28;20464;-75
2021/06/06 06:53:39;;;;;;;11.27;10.13;;;22.90;75.90;;;;;;5008717;28;20041;-75
2021/06/06 06:56:26;;;;;;;11.40;10.20;;;23.00;75.20;;;;;;4995362;28;20053;-76
2021/06/06 06:59:10;;;;;;;11.50;10.30;;;23.10;74.80;;;;;;5012691;28;20044;-75
2021/06/06 07:01:56;;;;;;;10.75;9.65;;;23.20;75.20;;;;;;5033594;28;20532;-78
2021/06/06 07:04:40;;;;;;;10.82;9.73;;;23.30;74.80;;;;;;5012759;28;20081;-78
2021/06/06 07:07:24;;;;;;;12.50;9.88;;;23.40;74.30;;;;;;4994186;28;20049;-75
2021/06/06 07:10:13;;;;;;;11.55;10.27;;;23.50;73.80;;;;;;4998140;28;20077;-74
2021/06/06 07:12:57;;;;;;;11.07;9.98;;;23.60;74.00;;;;;;4998109;28;20033;-75
2021/06/06 07:15:42;;;;;;;10.40;9.40;;;23.70;73.90;;;;;;5004983;28;20092;-79
2021/06/06 07:18:26;;;;;;;9.98;8.98;;;23.80;72.80;;;;;;5001621;28;20052;-78
2021/06/06 07:21:14;;;;;;;10.38;9.23;;;23.90;72.50;;;;;;5013903;28;20410;-78
2021/06/06 07:23:58;;;;;;;9.80;8.80;;;24.00;72.40;;;;;;5005641;28;20038;-79
2021/06/06 07:26:47;;;;;;;10.70;9.30;;;24.10;71.50;;;;;;5001728;28;20041;-78
2021/06/06 07:29:34;;;;;;;10.70;8.95;;;24.20;71.30;;;;;;5009872;28;20045;-77
2021/06/06 07:32:18;;;;;;;11.07;9.30;;;24.30;70.70;;;;;;5012324;28;20068;-78
2021/06/06 07:35:06;;;;;;;12.10;9.85;;;24.50;70.80;;;;;;4996465;28;20037;-80
2021/06/06 07:37:50;;;;;;;9.23;8.20;;;24.60;70.60;;;;;;4995799;28;20041;-74
2021/06/06 07:40:39;;;;;;;11.35;9.60;;;24.70;69.80;;;;;;4994362;28;20076;-77
2021/06/06 07:43:23;;;;;;;9.32;8.43;;;24.80;68.70;;;;;;4999882;28;20060;-76
2021/06/06 07:46:07;;;;;;;8.15;7.25;;;24.90;68.20;;;;;;5013899;28;20033;-77
2021/06/06 07:48:52;;;;;;;8.52;7.63;;;25.10;68.10;;;;;;5010660;28;20044;-77
2021/06/06 07:51:36;;;;;;;9.77;8.10;;;25.20;68.00;;;;;;5007726;28;20041;-77
2021/06/06 07:54:20;;;;;;;9.50;8.00;;;25.30;66.80;;;;;;4998199;28;20403;-77
2021/06/06 07:57:05;;;;;;;8.55;7.53;;;25.40;66.20;;;;;;4996955;28;20096;-78
2021/06/06 07:59:48;;;;;;;9.13;7.78;;;25.50;65.70;;;;;;5009496;28;20462;-76
2021/06/06 08:02:32;;;;;;;7.97;6.88;;;25.60;65.10;;;;;;5009407;28;20556;-77
2021/06/06 08:05:17;;;;;;;11.20;6.88;;;25.70;65.30;;;;;;4994093;28;20069;-77
2021/06/06 08:08:02;;;;;;;8.98;7.07;;;25.80;63.60;;;;;;4999813;28;20036;-78
2021/06/06 08:10:50;;;;;;;8.05;7.10;;;25.90;63.30;;;;;;5013338;28;20045;-80
2021/06/06 08:13:35;;;;;;;10.18;8.15;;;26.00;62.30;;;;;;5007633;28;20057;-76
2021/06/06 08:16:20;;;;;;;9.95;8.32;;;26.00;61.80;;;;;;4999881;28;20084;-78
2021/06/06 08:19:05;;;;;;;7.85;7.13;;;26.10;62.40;;;;;;5009798;28;20239;-80
2021/06/06 08:21:51;;;;;;;9.18;7.30;;;26.20;61.00;;;;;;5007431;28;20271;-80
2021/06/06 08:24:35;;;;;;;9.38;7.20;;;26.30;61.50;;;;;;4999914;28;20486;-80
2021/06/06 08:27:19;;;;;;;10.38;6.65;;;26.30;62.00;;;;;;5007615;28;20118;-79
2021/06/06 08:30:07;;;;;;;7.70;6.13;;;26.40;61.00;;;;;;4994197;28;20106;-79
2021/06/06 08:32:51;;;;;;;8.82;7.93;;;26.40;60.00;;;;;;4991708;28;20529;-79
2021/06/06 08:35:36;;;;;;;8.32;7.40;;;26.50;60.00;;;;;;4992457;28;20284;-79
2021/06/06 08:38:03;;;;;;;10.25;8.05;;;26.60;59.60;;;;;;4992860;28;20505;-79
2021/06/06 08:40:37;;;;;;;7.95;6.97;;;26.60;59.10;;;;;;4994276;28;20034;-79
2021/06/06 08:43:05;;;;;;;8.05;7.15;;;26.60;59.00;;;;;;4995495;28;20046;-79
2021/06/06 08:45:35;;;;;;;6.45;5.85;;;26.70;58.80;;;;;;4994570;28;20030;-80
2021/06/06 08:48:04;;;;;;;7.28;5.97;;;26.70;58.60;;;;;;4991669;28;20034;-79
2021/06/06 08:50:37;;;;;;;6.45;5.75;;;26.80;56.90;;;;;;4997772;28;20041;-79
2021/06/06 08:53:13;;;;;;;8.52;6.28;;;26.90;56.50;;;;;;4994407;28;20037;-78
2021/06/06 08:55:58;;;;;;;11.10;6.18;;;26.90;56.30;;;;;;4994249;28;20037;-79
2021/06/06 08:58:47;;;;;;;7.75;5.50;;;27.00;56.10;;;;;;4995226;28;20060;-79
2021/06/06 09:01:43;;;;;;;5.55;4.93;;;27.00;54.70;;;;;;5002611;28;20044;-79
2021/06/06 09:04:31;;;;;;;5.85;5.25;;;27.10;53.50;;;;;;5006880;28;20065;-77
2021/06/06 09:07:02;;;;;;;9.32;5.97;;;27.10;52.70;;;;;;5004735;28;20034;-78
2021/06/06 09:09:37;;;;;;;7.18;5.80;;;27.20;53.60;;;;;;5014935;28;20076;-77
2021/06/06 09:12:06;;;;;;;8.68;5.85;;;27.30;52.70;;;;;;5000840;28;20038;-79
2021/06/06 09:14:32;;;;;;;4.90;4.20;;;27.40;52.60;;;;;;5008687;28;20030;-77
2021/06/06 09:17:02;;;;;;;6.20;3.95;;;27.50;49.50;;;;;;5000777;28;20062;-77
2021/06/06 09:19:39;;;;;;;6.88;4.50;;;27.40;48.10;;;;;;5009174;28;20489;-75
2021/06/06 09:22:05;;;;;;;10.07;5.43;;;27.40;48.00;;;;;;4999067;28;20045;-73
2021/06/06 09:24:35;;;;;;;5.38;4.05;;;27.50;47.10;;;;;;4993507;28;20030;-78
2021/06/06 09:27:14;;;;;;;6.32;4.57;;;27.50;47.50;;;;;;5001253;28;20391;-78
2021/06/06 09:29:40;;;;;;;6.55;4.07;;;27.60;47.60;;;;;;4996542;28;20029;-77
2021/06/06 09:32:13;;;;;;;5.35;4.60;;;27.80;48.10;;;;;;5000287;28;20056;-79
2021/06/06 09:34:51;;;;;;;5.15;3.85;;;27.90;47.90;;;;;;5003585;28;20478;-77
2021/06/06 09:37:20;;;;;;;5.40;4.00;;;28.00;46.80;;;;;;5010202;28;20120;-76
2021/06/06 09:39:52;;;;;;;4.53;3.95;;;28.20;46.00;;;;;;5010708;28;20049;-69
2021/06/06 09:42:50;;;;;;;4.88;3.90;;;28.30;44.20;;;;;;4999416;28;20567;-71
2021/06/06 09:45:20;;;;;;;7.18;4.63;;;28.30;44.60;;;;;;4991843;28;20368;-71
2021/06/06 09:48:23;;;;;;;5.88;4.40;;;28.40;44.10;;;;;;5004400;28;20520;-71
2021/06/06 09:50:51;;;;;;;4.72;4.10;;;28.40;43.70;;;;;;5011179;28;20045;-71
2021/06/06 09:53:30;;;;;;;4.78;3.95;;;28.40;43.90;;;;;;4995775;28;20072;-71
2021/06/06 09:56:21;;;;;;;5.90;4.00;;;28.40;44.80;;;;;;4991967;28;20044;-72
2021/06/06 09:58:48;;;;;;;4.35;3.78;;;28.50;44.40;;;;;;5003311;28;20040;-73
2021/06/06 10:01:34;;;;;;;4.97;3.70;;;28.60;44.00;;;;;;5011854;28;20045;-72
2021/06/06 10:04:02;;;;;;;4.65;3.65;;;28.60;42.40;;;;;;5001829;28;20600;-72
2021/06/06 10:06:30;;;;;;;4.53;3.65;;;28.70;43.00;;;;;;5000835;28;20120;-72
2021/06/06 10:09:06;;;;;;;5.97;3.95;;;28.70;43.60;;;;;;5012220;28;20160;-72
2021/06/06 10:12:04;;;;;;;4.63;3.70;;;28.80;42.40;;;;;;5015344;28;20574;-71
2021/06/06 10:14:44;;;;;;;5.78;3.75;;;28.90;42.70;;;;;;4996874;28;20042;-72
2021/06/06 10:17:16;;;;;;;5.18;3.78;;;29.00;43.00;;;;;;4995456;28;20034;-72
2021/06/06 10:19:54;;;;;;;5.93;3.80;;;29.10;42.20;;;;;;4995665;28;20045;-72
2021/06/06 10:22:25;;;;;;;6.47;3.72;;;29.20;42.00;;;;;;4995214;28;20042;-71
2021/06/06 10:24:58;;;;;;;4.55;4.15;;;29.30;42.00;;;;;;5009205;28;20029;-71
2021/06/06 10:27:51;;;;;;;8.05;3.85;;;29.30;41.60;;;;;;5012552;28;20026;-75
2021/06/06 10:30:31;;;;;;;4.45;3.97;;;29.40;42.50;;;;;;5015007;28;20034;-72
2021/06/06 10:33:22;;;;;;;6.78;3.63;;;29.30;40.80;;;;;;5012804;28;20160;-72
2021/06/06 10:35:49;;;;;;;6.60;3.45;;;29.30;39.80;;;;;;5029942;28;20064;-72
2021/06/06 10:38:17;;;;;;;6.18;3.53;;;29.10;38.80;;;;;;5012227;28;20026;-72
2021/06/06 10:40:54;;;;;;;4.97;3.70;;;29.00;39.20;;;;;;5014478;28;20065;-72
2021/06/06 10:43:46;;;;;;;4.25;3.85;;;28.80;39.70;;;;;;5010897;28;20320;-71
2021/06/06 10:46:28;;;;;;;5.13;3.50;;;28.70;39.60;;;;;;5014957;28;20068;-72
2021/06/06 10:49:09;;;;;;;7.45;3.97;;;28.60;39.70;;;;;;5001319;28;20113;-72
2021/06/06 10:51:40;;;;;;;6.07;3.47;;;28.50;39.90;;;;;;4995110;28;20494;-72
2021/06/06 10:54:21;;;;;;;4.50;3.88;;;28.30;40.10;;;;;;5010468;28;20539;-72
2021/06/06 10:56:54;;;;;;;5.57;4.75;;;28.30;40.20;;;;;;5014575;28;20032;-72
2021/06/06 10:59:49;;;;;;;5.13;3.67;;;28.30;40.50;;;;;;5012925;28;20045;-72
2021/06/06 11:02:34;;;;;;;5.45;4.03;;;28.20;39.90;;;;;;5010158;28;20034;-72
2021/06/06 11:05:20;;;;;;;;;;;28.10;40.40;;;;;;5013198;28;20438;-74
2021/06/06 11:07:46;;;;;;;5.65;4.40;;;28.00;40.60;;;;;;5006464;28;19910;-72
2021/06/06 11:10:18;;;;;;;5.30;4.03;;;27.90;41.00;;;;;;5014299;28;20053;-72
2021/06/06 11:12:46;;;;;;;4.68;4.05;;;27.80;40.50;;;;;;5013164;28;20177;-72
2021/06/06 11:15:38;;;;;;;5.78;4.90;;;27.70;40.60;;;;;;5014067;28;20030;-73
2021/06/06 11:18:16;;;;;;;8.23;5.95;;;27.70;40.90;;;;;;5007889;28;20030;-72
2021/06/06 11:20:53;;;;;;;5.88;5.28;;;27.70;41.90;;;;;;5014117;28;20026;-73
2021/06/06 11:23:39;;;;;;;6.60;4.28;;;27.70;41.30;;;;;;5007577;28;20034;-72
2021/06/06 11:26:24;;;;;;;7.07;4.15;;;27.70;41.10;;;;;;4994644;28;20092;-72
2021/06/06 11:29:10;;;;;;;5.93;4.22;;;27.70;41.20;;;;;;5011656;28;20041;-72
2021/06/06 11:31:40;;;;;;;5.28;4.55;;;27.60;41.80;;;;;;5012824;28;20501;-72
2021/06/06 11:34:26;;;;;;;7.22;4.40;;;27.70;42.30;;;;;;4994886;28;20038;-72
2021/06/06 11:37:08;;;;;;;5.60;3.92;;;27.70;42.10;;;;;;4998295;28;20027;-72
2021/06/06 11:39:40;;;;;;;4.50;3.67;;;27.90;41.80;;;;;;4996922;28;20026;-72
2021/06/06 11:42:23;;;;;;;8.10;4.10;;;27.90;40.30;;;;;;4994164;28;20057;-73
2021/06/06 11:44:59;;;;;;;4.35;3.75;;;28.00;40.20;;;;;;5012582;28;20113;-72
2021/06/06 11:47:29;;;;;;;9.88;4.43;;;28.10;39.20;;;;;;5004428;28;20480;-72
2021/06/06 11:50:10;;;;;;;4.15;3.75;;;28.10;39.10;;;;;;5013046;28;20037;-71
2021/06/06 11:52:41;;;;;;;4.35;3.95;;;28.20;40.10;;;;;;5005428;28;20489;-72
2021/06/06 11:55:25;;;;;;;5.25;3.70;;;28.20;39.30;;;;;;4995788;28;20172;-71
2021/06/06 11:58:18;;;;;;;7.78;4.10;;;28.20;39.80;;;;;;4998894;28;20030;-72
2021/06/06 12:00:51;;;;;;;5.57;4.30;;;28.40;40.40;;;;;;5013445;28;20032;-72
2021/06/06 12:03:32;;;;;;;5.32;4.05;;;28.40;40.40;;;;;;5011313;28;20038;-72
2021/06/06 12:06:11;;;;;;;5.43;3.90;;;28.50;40.20;;;;;;5027192;28;20465;-71
2021/06/06 12:08:44;;;;;;;7.43;3.85;;;28.50;40.00;;;;;;5002977;28;20105;-72
2021/06/06 12:11:15;;;;;;;5.30;4.20;;;28.60;39.80;;;;;;5011755;28;20467;-72
2021/06/06 12:13:43;;;;;;;8.20;4.75;;;28.70;39.70;;;;;;5006286;28;20030;-72
2021/06/06 12:16:13;;;;;;;4.80;3.50;;;28.80;40.60;;;;;;4993938;28;20497;-72
2021/06/06 12:19:13;;;;;;;4.38;3.80;;;28.90;40.20;;;;;;4994829;28;20407;-71
2021/06/06 12:22:14;;;;;;;6.68;3.92;;;29.00;40.80;;;;;;5000811;28;20100;-73
2021/06/06 12:24:40;;;;;;;5.03;3.60;;;29.10;40.40;;;;;;5004458;28;20130;-74
2021/06/06 12:27:23;;;;;;;6.32;4.00;;;29.20;40.00;;;;;;5002127;28;20116;-72
2021/06/06 12:29:52;;;;;;;4.72;4.22;;;29.30;39.80;;;;;;5000422;28;20034;-72
2021/06/06 12:32:27;;;;;;;4.32;3.88;;;29.30;39.80;;;;;;4993858;28;20424;-73
2021/06/06 12:34:53;;;;;;;;;;;29.40;39.60;;;;;;5006105;28;20030;-71
2021/06/06 12:37:31;;;;;;;4.82;3.75;;;29.50;39.70;;;;;;4993255;28;19929;-72
2021/06/06 12:40:00;;;;;;;4.72;3.97;;;29.50;39.00;;;;;;5003302;28;20030;-71
2021/06/06 12:42:28;;;;;;;6.75;4.10;;;29.60;38.70;;;;;;5012054;28;20390;-75
2021/06/06 12:44:59;;;;;;;10.32;3.95;;;29.60;38.20;;;;;;5001756;28;20041;-72
2021/06/06 12:47:30;;;;;;;5.55;4.10;;;29.70;38.90;;;;;;5004913;28;20080;-72
2021/06/06 12:50:04;;;;;;;6.32;3.72;;;29.90;38.90;;;;;;5001890;28;20029;-73
2021/06/06 12:52:34;;;;;;;6.32;4.20;;;30.00;38.00;;;;;;4993218;28;20444;-71
2021/06/06 12:55:21;;;;;;;4.30;3.40;;;30.10;38.20;;;;;;5002835;28;20026;-70
2021/06/06 12:58:02;;;;;;;5.90;4.38;;;30.30;37.80;;;;;;5002387;28;20533;-70
2021/06/06 13:00:58;;;;;;;5.75;4.35;;;30.40;37.40;;;;;;5011467;28;20118;-70
2021/06/06 13:03:46;;;;;;;6.97;4.43;;;30.50;37.70;;;;;;5008680;28;20056;-70
2021/06/06 13:06:31;;;;;;;4.97;4.20;;;30.60;38.00;;;;;;4992768;28;20066;-70
2021/06/06 13:09:29;;;;;;;5.00;3.80;;;30.60;38.20;;;;;;4997795;28;20086;-70
2021/06/06 13:12:24;;;;;;;5.88;4.00;;;30.80;37.90;;;;;;5011192;28;20083;-70
2021/06/06 13:15:14;;;;;;;6.13;3.83;;;31.00;37.70;;;;;;5009264;28;20032;-71
2021/06/06 13:17:59;;;;;;;5.50;4.18;;;31.10;36.90;;;;;;5010734;28;20037;-70
2021/06/06 13:20:50;;;;;;;6.07;4.00;;;31.20;36.80;;;;;;4996750;28;20495;-71
2021/06/06 13:23:38;;;;;;;5.90;4.00;;;31.20;37.00;;;;;;5000292;28;20065;-71
2021/06/06 13:26:23;;;;;;;6.55;3.95;;;31.20;37.50;;;;;;5011670;28;20041;-71
2021/06/06 13:29:14;;;;;;;7.78;4.95;;;31.20;37.20;;;;;;5004522;28;20063;-71
2021/06/06 13:32:07;;;;;;;7.63;5.05;;;31.30;37.10;;;;;;5008864;28;20201;-71
2021/06/06 13:34:55;;;;;;;6.32;4.50;;;31.50;37.20;;;;;;4992096;28;20041;-73
2021/06/06 13:37:39;;;;;;;6.28;4.30;;;31.70;36.70;;;;;;4992391;28;20037;-71
2021/06/06 13:40:28;;;;;;;6.25;4.38;;;31.80;36.70;;;;;;5000889;28;20100;-69
2021/06/06 13:43:12;;;;;;;5.15;4.05;;;31.90;36.90;;;;;;5003180;28;20049;-73
2021/06/06 13:45:57;;;;;;;4.78;4.28;;;32.10;36.50;;;;;;5004749;28;20128;-71
2021/06/06 13:48:42;;;;;;;4.78;4.13;;;32.30;35.40;;;;;;5009800;28;20045;-71
2021/06/06 13:51:26;;;;;;;4.25;3.70;;;32.50;36.00;;;;;;5005096;28;20153;-76
2021/06/06 13:53:51;;;;;;;4.30;3.67;;;32.50;34.50;;;;;;5010184;28;20113;-70
2021/06/06 13:56:17;;;;;;;7.20;4.25;;;32.60;34.70;;;;;;5001534;28;20029;-74
2021/06/06 13:58:43;;;;;;;5.00;3.63;;;32.60;35.40;;;;;;4997577;28;20027;-71
2021/06/06 14:01:08;;;;;;;4.10;3.70;;;32.80;34.10;;;;;;5011768;28;20449;-71
2021/06/06 14:03:37;;;;;;;4.57;3.90;;;32.70;34.20;;;;;;5008506;28;20056;-71
2021/06/06 14:06:04;;;;;;;5.25;3.97;;;32.60;34.10;;;;;;5008444;28;20479;-72
2021/06/06 14:08:32;;;;;;;6.13;4.00;;;32.60;33.90;;;;;;5010570;28;20037;-70